Time;durP1;ratioP1;P1;durP2;ratioP2;P2;SDS_P1;SDS_P2;PMS_P1;PMS_P2;Temp;Humidity;BMP_temperature;BMP_pressure;BME280_temperature;BME280_humidity;BME280_pressure;Samples;Min_cycle;Max_cycle;Signal;HPM_P1;HPM_P2
2022/10/15 00:00:15;;;;;;;2;1.6;;;;;;;13.13;100;934.3825;;;;
2022/10/15 00:03:21;;;;;;;3.6;2.2;;;;;;;13.14;100;934.4144;;;;
2022/10/15 00:05:50;;;;;;;2.7;1.9;;;;;;;13.2;100;934.3744;;;;
2022/10/15 00:08:15;;;;;;;2.4;1.8;;;;;;;13.12;100;934.2698;;;;
2022/10/15 00:11:14;;;;;;;3.3;1.8;;;;;;;13.15;100;934.3297;;;;
2022/10/15 00:13:39;;;;;;;3.3;1.9;;;;;;;13.32;100;934.3329;;;;
2022/10/15 00:16:07;;;;;;;5.5;2.3;;;;;;;13.42;100;934.2325;;;;
2022/10/15 00:18:32;;;;;;;3;1.9;;;;;;;13.32;100;934.2778;;;;
2022/10/15 00:20:57;;;;;;;4;1.9;;;;;;;13.24;100;934.3352;;;;
2022/10/15 00:23:23;;;;;;;2.2;1.5;;;;;;;13.18;100;934.2762;;;;
2022/10/15 00:25:48;;;;;;;1.5;1.3;;;;;;;13.24;100;934.2281;;;;
2022/10/15 00:28:13;;;;;;;2.9;2.1;;;;;;;13.4;100;934.1117;;;;
2022/10/15 00:33:04;;;;;;;1.7;1.6;;;;;;;13.56;99.99316;934.1474;;;;
2022/10/15 00:35:29;;;;;;;2.3;1.5;;;;;;;13.57;99.70801;934.1649;;;;
2022/10/15 00:37:54;;;;;;;1.7;1.5;;;;;;;13.4;100;934.1548;;;;
2022/10/15 00:40:22;;;;;;;2.3;1.5;;;;;;;13.14;100;934.0898;;;;
2022/10/15 00:42:47;;;;;;;2.5;1.8;;;;;;;13.04;100;934.0178;;;;
2022/10/15 00:45:14;;;;;;;1.9;1.3;;;;;;;13.16;100;934.0545;;;;
2022/10/15 00:47:40;;;;;;;1.9;1.6;;;;;;;13.04;100;934.0298;;;;
2022/10/15 00:50:05;;;;;;;2.2;1.6;;;;;;;13.04;100;934.0538;;;;
2022/10/15 00:52:32;;;;;;;1.4;1.3;;;;;;;13.15;100;933.8883;;;;
2022/10/15 00:54:57;;;;;;;1.6;1.3;;;;;;;13.25;100;933.9626;;;;
2022/10/15 00:57:22;;;;;;;1.7;1.5;;;;;;;13.14;100;934.0036;;;;
2022/10/15 00:59:48;;;;;;;2.9;1.3;;;;;;;13.28;100;934.0327;;;;
2022/10/15 01:02:13;;;;;;;3;1.6;;;;;;;13.36;100;934.1096;;;;
2022/10/15 01:04:38;;;;;;;1.8;1.4;;;;;;;13.39;100;934.0327;;;;
2022/10/15 01:07:06;;;;;;;5.2;1.9;;;;;;;13.18;100;934.0098;;;;
2022/10/15 01:09:31;;;;;;;1.5;1.4;;;;;;;13.16;100;933.9763;;;;
2022/10/15 01:11:56;;;;;;;2.8;1.6;;;;;;;13.19;100;933.9554;;;;
2022/10/15 01:14:21;;;;;;;1.9;1.4;;;;;;;13.14;100;933.9405;;;;
2022/10/15 01:16:46;;;;;;;1.5;1.4;;;;;;;13.16;100;933.9211;;;;
2022/10/15 01:19:19;;;;;;;1.8;1.7;;;;;;;13.23;100;933.9059;;;;
2022/10/15 01:21:45;;;;;;;2.5;1.7;;;;;;;13.29;100;933.8767;;;;
2022/10/15 01:24:10;;;;;;;2.4;1.4;;;;;;;13.26;100;933.9089;;;;
2022/10/15 01:26:35;;;;;;;1.9;1.7;;;;;;;13.31;100;933.9461;;;;
2022/10/15 01:29:00;;;;;;;1.8;1.5;;;;;;;13.16;100;933.9147;;;;
2022/10/15 01:31:25;;;;;;;2.6;1.3;;;;;;;13.26;100;933.8569;;;;
2022/10/15 01:33:50;;;;;;;1.7;1.6;;;;;;;13.31;100;933.7445;;;;
2022/10/15 01:36:16;;;;;;;3.7;1.8;;;;;;;13.14;100;933.7933;;;;
2022/10/15 01:38:41;;;;;;;2.4;1.5;;;;;;;13.27;100;933.7776;;;;
2022/10/15 01:41:06;;;;;;;2.4;1.3;;;;;;;13.33;100;933.7467;;;;
2022/10/15 01:43:31;;;;;;;2;1.4;;;;;;;13.36;100;933.7866;;;;
2022/10/15 01:45:57;;;;;;;1.9;1.3;;;;;;;13.37;100;933.728;;;;
2022/10/15 01:48:22;;;;;;;1.5;1.1;;;;;;;13.4;100;933.7598;;;;
2022/10/15 01:50:47;;;;;;;1.8;1.4;;;;;;;13.44;100;933.6853;;;;
2022/10/15 01:53:12;;;;;;;1.4;1.2;;;;;;;13.38;100;933.7439;;;;
2022/10/15 01:55:40;;;;;;;1.6;1.2;;;;;;;13.45;100;933.6916;;;;
2022/10/15 01:58:05;;;;;;;2.6;1.2;;;;;;;13.45;100;933.6453;;;;
2022/10/15 02:00:34;;;;;;;1.3;1.2;;;;;;;13.42;100;933.6111;;;;
2022/10/15 02:02:59;;;;;;;2.4;1.6;;;;;;;13.41;100;933.7037;;;;
2022/10/15 02:05:24;;;;;;;1.5;1.2;;;;;;;13.48;100;933.7106;;;;
2022/10/15 02:07:51;;;;;;;1.6;1.3;;;;;;;13.49;100;933.7184;;;;
2022/10/15 02:10:16;;;;;;;2.3;1.4;;;;;;;13.55;100;933.7579;;;;
2022/10/15 02:12:42;;;;;;;1.2;1.1;;;;;;;13.6;100;933.8519;;;;
2022/10/15 02:15:09;;;;;;;1.8;1.3;;;;;;;13.58;100;933.9073;;;;
2022/10/15 02:17:34;;;;;;;2.2;1.6;;;;;;;13.66;100;933.8812;;;;
2022/10/15 02:19:59;;;;;;;1.3;1.2;;;;;;;13.67;99.82227;933.8395;;;;
2022/10/15 02:22:24;;;;;;;2;1.4;;;;;;;13.7;99.24414;933.8624;;;;
2022/10/15 02:24:49;;;;;;;2.1;1.4;;;;;;;13.66;99.47754;933.7435;;;;
2022/10/15 02:30:35;;;;;;;1.4;1.3;;;;;;;13.55;99.53125;933.7139;;;;
2022/10/15 02:33:02;;;;;;;2.6;1.2;;;;;;;13.57;99.69629;933.7786;;;;
2022/10/15 02:35:33;;;;;;;2.2;1.3;;;;;;;13.56;99.81152;933.7346;;;;
2022/10/15 02:38:02;;;;;;;2.3;1.3;;;;;;;13.55;100;933.7467;;;;
2022/10/15 02:40:28;;;;;;;2.4;1.6;;;;;;;13.39;100;933.7783;;;;
2022/10/15 02:42:57;;;;;;;2.3;1.3;;;;;;;13.45;100;933.9044;;;;
2022/10/15 02:48:53;;;;;;;3.3;1.3;;;;;;;13.49;100;933.9528;;;;
2022/10/15 02:51:20;;;;;;;2.5;1.1;;;;;;;13.51;100;933.8167;;;;
2022/10/15 02:53:45;;;;;;;2.1;1;;;;;;;13.57;99.76563;933.8074;;;;
2022/10/15 02:56:46;;;;;;;1.4;1;;;;;;;13.59;99.38965;933.9216;;;;
2022/10/15 02:59:14;;;;;;;2.7;1.3;;;;;;;13.41;100;933.9788;;;;
2022/10/15 03:01:39;;;;;;;1.7;1.3;;;;;;;13.36;100;933.892;;;;
2022/10/15 03:04:11;;;;;;;1.5;1.1;;;;;;;13.38;100;933.8935;;;;
2022/10/15 03:06:37;;;;;;;1.1;1;;;;;;;13.45;100;933.9572;;;;
2022/10/15 03:09:07;;;;;;;1.4;1.1;;;;;;;13.54;100;933.8731;;;;
2022/10/15 03:11:32;;;;;;;3;1.1;;;;;;;13.62;99.59375;933.9672;;;;
2022/10/15 03:14:02;;;;;;;1.9;0.9;;;;;;;13.66;99.24805;933.8964;;;;
2022/10/15 03:16:28;;;;;;;2.1;1.3;;;;;;;13.45;100;933.7756;;;;
2022/10/15 03:18:53;;;;;;;1.9;1.1;;;;;;;13.34;100;933.8834;;;;
2022/10/15 03:21:18;;;;;;;1.9;0.9;;;;;;;13.24;100;933.9458;;;;
2022/10/15 03:23:44;;;;;;;1.1;0.9;;;;;;;13.24;100;933.7779;;;;
2022/10/15 03:26:09;;;;;;;1.1;1;;;;;;;13.28;100;933.8328;;;;
2022/10/15 03:28:37;;;;;;;2;0.8;;;;;;;13.37;100;933.8416;;;;
2022/10/15 03:31:02;;;;;;;1.6;1.1;;;;;;;13.44;100;933.7566;;;;
2022/10/15 03:33:27;;;;;;;3.3;1.1;;;;;;;13.51;100;933.7935;;;;
2022/10/15 03:35:56;;;;;;;2.1;1.6;;;;;;;13.44;100;933.7469;;;;
2022/10/15 03:38:23;;;;;;;4.1;1.2;;;;;;;13.45;100;933.7076;;;;
2022/10/15 03:40:48;;;;;;;2.8;1;;;;;;;13.3;100;933.7486;;;;
2022/10/15 03:43:13;;;;;;;1.3;1.1;;;;;;;13.15;100;933.7477;;;;
2022/10/15 03:45:42;;;;;;;2.4;1.2;;;;;;;13.08;100;933.7433;;;;
2022/10/15 03:48:07;;;;;;;1.7;1.1;;;;;;;13.13;100;933.7374;;;;
2022/10/15 03:50:35;;;;;;;3;1.4;;;;;;;13.21;100;933.7014;;;;
2022/10/15 03:53:03;;;;;;;1.5;1.2;;;;;;;13.16;100;933.6692;;;;
2022/10/15 03:55:29;;;;;;;1.9;1.6;;;;;;;13.13;100;933.6511;;;;
2022/10/15 03:57:54;;;;;;;1.5;1.4;;;;;;;13.14;100;933.7477;;;;
2022/10/15 04:02:34;;;;;;;1.6;1.5;;;;;;;13.28;100;933.7687;;;;
2022/10/15 04:05:03;;;;;;;2.4;1.9;;;;;;;13.37;100;933.7872;;;;
2022/10/15 04:07:28;;;;;;;1.7;1.5;;;;;;;13.2;100;933.8603;;;;
2022/10/15 04:09:53;;;;;;;1.8;1.3;;;;;;;13.13;100;933.7534;;;;
2022/10/15 04:12:18;;;;;;;2.1;1.8;;;;;;;13.31;100;933.8469;;;;
2022/10/15 04:14:46;;;;;;;1.5;1.4;;;;;;;13.15;100;933.8077;;;;
2022/10/15 04:17:11;;;;;;;1.6;1.5;;;;;;;13.13;100;933.8293;;;;
2022/10/15 04:19:38;;;;;;;3.4;1.7;;;;;;;13.17;100;933.7452;;;;
2022/10/15 04:22:04;;;;;;;1.9;1.2;;;;;;;13.16;100;933.8162;;;;
2022/10/15 04:24:29;;;;;;;1.6;1.4;;;;;;;13.3;100;933.851;;;;
2022/10/15 04:26:58;;;;;;;2.3;1.8;;;;;;;13.28;100;933.7928;;;;
2022/10/15 04:29:27;;;;;;;2.6;1.6;;;;;;;13.36;100;933.8801;;;;
2022/10/15 04:34:31;;;;;;;3.4;2;;;;;;;13.35;100;933.9146;;;;
2022/10/15 04:36:56;;;;;;;1.7;1.4;;;;;;;13.42;100;933.9486;;;;
2022/10/15 04:39:25;;;;;;;2;1.4;;;;;;;13.44;100;934.0029;;;;
2022/10/15 04:41:50;;;;;;;2.4;1.5;;;;;;;13.34;100;934.0273;;;;
2022/10/15 04:44:17;;;;;;;1.9;1.3;;;;;;;13.32;100;933.9924;;;;
2022/10/15 04:46:45;;;;;;;2;1.2;;;;;;;13.34;100;933.9954;;;;
2022/10/15 04:49:10;;;;;;;1.5;1.2;;;;;;;13.28;100;933.9623;;;;
2022/10/15 04:51:38;;;;;;;1.3;1;;;;;;;13.18;100;933.9691;;;;
2022/10/15 04:54:03;;;;;;;4.2;1.1;;;;;;;13.3;100;934.0133;;;;
2022/10/15 04:56:32;;;;;;;1.1;1;;;;;;;13.25;100;934.0472;;;;
2022/10/15 04:58:57;;;;;;;1.6;1.1;;;;;;;13.15;100;934.0906;;;;
2022/10/15 05:01:25;;;;;;;3.8;1.9;;;;;;;13.19;100;933.9906;;;;
2022/10/15 05:14:24;;;;;;;4.3;2.5;;;;;;;13.42;100;934.0309;;;;
2022/10/15 05:16:51;;;;;;;7.6;4.1;;;;;;;13.44;100;934.0477;;;;
2022/10/15 05:19:17;;;;;;;1.7;1.4;;;;;;;13.35;100;934.024;;;;
2022/10/15 05:21:41;;;;;;;2.6;1.5;;;;;;;13.44;100;933.9197;;;;
2022/10/15 05:24:08;;;;;;;1.7;1.6;;;;;;;13.36;100;933.9551;;;;
2022/10/15 05:26:34;;;;;;;2.4;1.2;;;;;;;13.43;100;933.9717;;;;
2022/10/15 05:29:02;;;;;;;1.7;1.4;;;;;;;13.47;100;933.957;;;;
2022/10/15 05:31:27;;;;;;;2.1;1.5;;;;;;;13.54;100;933.938;;;;
2022/10/15 05:33:52;;;;;;;1.8;1.1;;;;;;;13.58;100;934.0184;;;;
2022/10/15 05:36:57;;;;;;;1.2;1.1;;;;;;;13.6;100;934.0134;;;;
2022/10/15 05:39:13;;;;;;;1.3;1;;;;;;;13.66;100;934.0964;;;;
2022/10/15 05:41:41;;;;;;;1.5;1.1;;;;;;;13.66;100;934.0787;;;;
2022/10/15 05:44:06;;;;;;;1.3;1.2;;;;;;;13.64;100;934.1342;;;;
2022/10/15 05:46:33;;;;;;;1.5;1.4;;;;;;;13.6;100;934.067;;;;
2022/10/15 05:48:58;;;;;;;2.4;1.2;;;;;;;13.55;100;934.1883;;;;
2022/10/15 05:51:27;;;;;;;2.1;1.5;;;;;;;13.58;100;934.1569;;;;
2022/10/15 05:53:52;;;;;;;2.3;2;;;;;;;13.63;100;934.163;;;;
2022/10/15 05:56:21;;;;;;;4.3;3.5;;;;;;;13.66;100;934.1556;;;;
2022/10/15 05:59:16;;;;;;;5.3;3.9;;;;;;;13.69;100;934.1833;;;;
2022/10/15 06:01:46;;;;;;;4.8;3;;;;;;;13.7;100;934.2824;;;;
2022/10/15 06:04:16;;;;;;;3.4;3;;;;;;;13.61;100;934.2773;;;;
2022/10/15 06:06:41;;;;;;;6.7;3.5;;;;;;;13.61;100;934.3094;;;;
2022/10/15 06:09:10;;;;;;;7.1;4.4;;;;;;;13.67;100;934.3011;;;;
2022/10/15 06:11:35;;;;;;;7.7;5.4;;;;;;;13.6;100;934.3422;;;;
2022/10/15 06:14:00;;;;;;;7.5;4.8;;;;;;;13.57;100;934.3794;;;;
2022/10/15 06:16:25;;;;;;;4.5;3.3;;;;;;;13.66;100;934.4579;;;;
2022/10/15 06:18:50;;;;;;;3.6;2.5;;;;;;;13.72;100;934.4255;;;;
2022/10/15 06:21:16;;;;;;;3.6;2.4;;;;;;;13.68;100;934.4154;;;;
2022/10/15 06:23:41;;;;;;;5.1;2.9;;;;;;;13.76;100;934.4091;;;;
2022/10/15 06:26:09;;;;;;;5.2;3.8;;;;;;;13.83;100;934.4559;;;;
2022/10/15 06:28:34;;;;;;;4.5;3;;;;;;;13.92;99.96094;934.3415;;;;
2022/10/15 06:34:16;;;;;;;3.8;2.3;;;;;;;14.03;99.62695;934.4913;;;;
2022/10/15 06:36:44;;;;;;;12.3;9;;;;;;;14.02;99.53516;934.4609;;;;
2022/10/15 06:39:09;;;;;;;12.6;8.4;;;;;;;14.08;99.52637;934.4402;;;;
2022/10/15 06:41:37;;;;;;;8.1;6;;;;;;;14;100;934.4648;;;;
2022/10/15 06:44:02;;;;;;;7;5.3;;;;;;;13.91;100;934.4977;;;;
2022/10/15 06:46:33;;;;;;;3.1;2.5;;;;;;;13.86;100;934.6061;;;;
2022/10/15 06:48:58;;;;;;;9.7;7.3;;;;;;;13.97;100;934.5603;;;;
2022/10/15 06:51:24;;;;;;;8.1;5.7;;;;;;;14.06;100;934.5742;;;;
2022/10/15 06:53:49;;;;;;;3.8;3;;;;;;;14.1;99.68066;934.585;;;;
2022/10/15 06:56:18;;;;;;;3.2;2.3;;;;;;;13.97;99.82422;934.5747;;;;
2022/10/15 06:58:44;;;;;;;2.9;1.9;;;;;;;14.07;99.2002;934.6365;;;;
2022/10/15 07:01:12;;;;;;;2.5;2.1;;;;;;;14.14;98.89453;934.6199;;;;
2022/10/15 07:03:37;;;;;;;3.6;2.4;;;;;;;14.11;99.58984;934.6561;;;;
2022/10/15 07:06:02;;;;;;;1.6;1.5;;;;;;;14.22;99.47852;934.6945;;;;
2022/10/15 07:08:31;;;;;;;3.1;1.9;;;;;;;14.33;99.0293;934.5916;;;;
2022/10/15 07:10:56;;;;;;;2.2;1.3;;;;;;;14.35;97.65332;934.7131;;;;
2022/10/15 07:13:23;;;;;;;1.7;1.3;;;;;;;14.31;97.96582;934.8017;;;;
2022/10/15 07:15:54;;;;;;;1.2;1.1;;;;;;;14.47;97.36816;934.7693;;;;
2022/10/15 07:18:17;;;;;;;2;1.3;;;;;;;14.52;97.02344;934.8144;;;;
2022/10/15 07:20:42;;;;;;;1.2;1;;;;;;;14.66;97.22656;934.8868;;;;
2022/10/15 07:23:11;;;;;;;2.5;1.3;;;;;;;14.79;96.80469;934.8925;;;;
2022/10/15 07:25:37;;;;;;;1.2;1.1;;;;;;;14.93;96.78906;934.92;;;;
2022/10/15 07:28:04;;;;;;;1.4;1.1;;;;;;;14.94;95.67383;934.9573;;;;
2022/10/15 07:30:29;;;;;;;2.6;1.6;;;;;;;15.02;95.48438;934.9695;;;;
2022/10/15 07:32:55;;;;;;;3.7;2.4;;;;;;;15.04;95.67285;934.9581;;;;
2022/10/15 07:35:20;;;;;;;2.4;2.2;;;;;;;15.03;96.37402;934.971;;;;
2022/10/15 07:37:50;;;;;;;4.3;3;;;;;;;15.05;97.02441;935.0181;;;;
2022/10/15 07:40:14;;;;;;;3.2;2.3;;;;;;;15.16;96.99023;935.0335;;;;
2022/10/15 07:42:43;;;;;;;1.9;1.8;;;;;;;15.26;96.23926;935.05;;;;
2022/10/15 07:45:14;;;;;;;0.8;0.8;;;;;;;15.21;95.69824;935.1514;;;;
2022/10/15 07:47:44;;;;;;;1.5;1.2;;;;;;;15.27;95.64355;935.0483;;;;
2022/10/15 07:50:14;;;;;;;1.4;1.1;;;;;;;15.3;94.96777;935.1626;;;;
2022/10/15 07:52:39;;;;;;;1.7;1.2;;;;;;;15.43;95.08789;935.1219;;;;
2022/10/15 07:55:07;;;;;;;1.4;1.3;;;;;;;15.56;94.4707;935.127;;;;
2022/10/15 07:57:32;;;;;;;2.7;2.3;;;;;;;15.63;94.0332;935.0753;;;;
2022/10/15 08:00:00;;;;;;;4.2;2.3;;;;;;;15.7;93.39063;935.0276;;;;
2022/10/15 08:02:25;;;;;;;4.1;2.8;;;;;;;15.83;93.16504;935.103;;;;
2022/10/15 08:04:54;;;;;;;4.3;3.3;;;;;;;15.89;93.39453;935.0041;;;;
2022/10/15 08:07:23;;;;;;;3.7;3;;;;;;;15.97;92.90723;935.1014;;;;
2022/10/15 08:09:53;;;;;;;3.5;2.5;;;;;;;15.89;93.34961;935.0811;;;;
2022/10/15 08:12:18;;;;;;;2.7;1.9;;;;;;;15.9;93.6875;935.0939;;;;
2022/10/15 08:15:08;;;;;;;2.6;2.1;;;;;;;16.03;93.58887;935.0695;;;;
2022/10/15 08:17:33;;;;;;;3.7;1.7;;;;;;;16.08;93.43848;935.1096;;;;
2022/10/15 08:20:02;;;;;;;1.9;1.5;;;;;;;16.19;93.49414;935.1021;;;;
2022/10/15 08:22:27;;;;;;;4.2;2.2;;;;;;;16.16;93.22266;935.1661;;;;
2022/10/15 08:24:56;;;;;;;7.2;2.6;;;;;;;16.19;92.8252;935.0804;;;;
2022/10/15 08:27:20;;;;;;;6.1;2.3;;;;;;;16.21;91.37207;935.1371;;;;
2022/10/15 08:29:47;;;;;;;2.7;1.6;;;;;;;16.31;91.79785;935.188;;;;
2022/10/15 08:32:32;;;;;;;1.5;1.3;;;;;;;16.16;89.71777;935.2151;;;;
2022/10/15 08:35:03;;;;;;;1.2;0.7;;;;;;;16.02;89.80566;935.3147;;;;
2022/10/15 08:37:28;;;;;;;1.6;1.4;;;;;;;16.22;91.03809;935.3597;;;;
2022/10/15 08:39:59;;;;;;;1.6;0.8;;;;;;;16.35;89.70898;935.4235;;;;
2022/10/15 08:42:27;;;;;;;0.8;0.8;;;;;;;16.45;89.87012;935.3538;;;;
2022/10/15 08:47:20;;;;;;;1;0.9;;;;;;;16.31;88.69727;935.4861;;;;
2022/10/15 08:49:45;;;;;;;2;0.9;;;;;;;16.36;87.64355;935.4972;;;;
2022/10/15 08:52:13;;;;;;;1.9;0.9;;;;;;;16.43;86.50977;935.5051;;;;
2022/10/15 08:54:40;;;;;;;0.6;0.6;;;;;;;16.6;86.20801;935.4821;;;;
2022/10/15 08:57:09;;;;;;;0.9;0.7;;;;;;;16.55;85.6416;935.5689;;;;
2022/10/15 08:59:35;;;;;;;0.8;0.8;;;;;;;16.52;85.69434;935.5598;;;;
2022/10/15 09:02:00;;;;;;;0.8;0.7;;;;;;;16.55;86.13965;935.5883;;;;
2022/10/15 09:04:30;;;;;;;0.6;0.6;;;;;;;16.74;86.50293;935.5717;;;;
2022/10/15 09:06:58;;;;;;;0.6;0.6;;;;;;;16.85;85.22656;935.6422;;;;
2022/10/15 09:09:24;;;;;;;1.1;0.7;;;;;;;16.98;85.70313;935.5561;;;;
2022/10/15 09:11:49;;;;;;;0.8;0.7;;;;;;;16.98;84.09277;935.5561;;;;
2022/10/15 09:14:15;;;;;;;1.5;0.7;;;;;;;17.21;84.4834;935.5011;;;;
2022/10/15 09:16:41;;;;;;;0.7;0.7;;;;;;;17.24;82.43848;935.5178;;;;
2022/10/15 09:19:06;;;;;;;1.7;0.9;;;;;;;17.32;81.89551;935.5306;;;;
2022/10/15 09:21:35;;;;;;;0.9;0.9;;;;;;;17.55;83.11133;935.468;;;;
2022/10/15 09:24:00;;;;;;;0.7;0.7;;;;;;;17.77;79.68066;935.4604;;;;
2022/10/15 09:26:29;;;;;;;1.6;0.8;;;;;;;17.89;79.95898;935.4612;;;;
2022/10/15 09:32:53;;;;;;;0.6;0.6;;;;;;;18.34;79.08691;935.4833;;;;
2022/10/15 09:35:23;;;;;;;1;0.9;;;;;;;18.34;76.91309;935.4575;;;;
2022/10/15 09:37:51;;;;;;;0.8;0.8;;;;;;;18.54;78.70508;935.4856;;;;
2022/10/15 09:40:17;;;;;;;0.9;0.9;;;;;;;18.3;76.59277;935.3923;;;;
2022/10/15 09:42:48;;;;;;;1.4;0.9;;;;;;;18.54;77.41406;935.401;;;;
2022/10/15 09:45:20;;;;;;;1.5;0.8;;;;;;;18.6;76.5752;935.3867;;;;
2022/10/15 09:47:47;;;;;;;2.6;0.9;;;;;;;18.64;76.97656;935.4048;;;;
2022/10/15 09:50:14;;;;;;;1.3;0.9;;;;;;;18.74;75.73926;935.4077;;;;
2022/10/15 09:52:39;;;;;;;3.5;2.9;;;;;;;18.82;77.24121;935.4241;;;;
2022/10/15 09:55:04;;;;;;;9.6;8.1;;;;;;;18.77;77.50098;935.4368;;;;
2022/10/15 09:57:29;;;;;;;17.4;14.6;;;;;;;18.98;78.20117;935.4258;;;;
2022/10/15 09:59:54;;;;;;;1.7;1;;;;;;;19;74.92285;935.375;;;;
2022/10/15 10:02:23;;;;;;;0.9;0.9;;;;;;;19.12;76.06055;935.3904;;;;
2022/10/15 10:04:48;;;;;;;1.1;0.7;;;;;;;19.14;74.84082;935.3731;;;;
2022/10/15 10:07:13;;;;;;;0.6;0.6;;;;;;;19.34;75.22363;935.4058;;;;
2022/10/15 10:09:38;;;;;;;1.7;0.7;;;;;;;19.59;74.46289;935.3909;;;;
2022/10/15 10:12:03;;;;;;;0.6;0.6;;;;;;;19.64;72.05762;935.3713;;;;
2022/10/15 10:14:28;;;;;;;0.8;0.7;;;;;;;19.65;70.42676;935.3822;;;;
2022/10/15 10:16:53;;;;;;;0.6;0.6;;;;;;;19.59;73.05273;935.4094;;;;
2022/10/15 10:19:18;;;;;;;0.7;0.7;;;;;;;19.61;72.27441;935.3837;;;;
2022/10/15 10:21:47;;;;;;;1;0.7;;;;;;;19.9;74.75977;935.3958;;;;
2022/10/15 10:24:12;;;;;;;0.7;0.6;;;;;;;20.32;70.11426;935.4014;;;;
2022/10/15 10:26:37;;;;;;;0.6;0.6;;;;;;;20.18;70.73438;935.3442;;;;
2022/10/15 10:29:03;;;;;;;1.1;0.4;;;;;;;20.76;69.25977;935.34;;;;
2022/10/15 10:32:13;;;;;;;0.6;0.5;;;;;;;21.02;64.72852;935.3353;;;;
2022/10/15 10:34:39;;;;;;;0.5;0.5;;;;;;;20.97;65.86719;935.3345;;;;
2022/10/15 10:37:05;;;;;;;0.5;0.5;;;;;;;20.91;64.92383;935.2921;;;;
2022/10/15 10:39:29;;;;;;;0.4;0.4;;;;;;;20.87;67.85156;935.2837;;;;
2022/10/15 10:41:59;;;;;;;0.6;0.6;;;;;;;20.79;67.64063;935.3186;;;;
2022/10/15 10:44:23;;;;;;;0.8;0.6;;;;;;;20.85;69.0752;935.3452;;;;
2022/10/15 10:46:49;;;;;;;0.6;0.6;;;;;;;20.71;67.9209;935.366;;;;
2022/10/15 10:49:16;;;;;;;0.7;0.7;;;;;;;20.68;68.12695;935.3847;;;;
2022/10/15 10:51:41;;;;;;;0.5;0.5;;;;;;;20.78;66.91504;935.3158;;;;
2022/10/15 10:54:07;;;;;;;1.2;0.6;;;;;;;21.04;65.29199;935.3875;;;;
2022/10/15 10:56:32;;;;;;;0.7;0.7;;;;;;;20.92;68.1875;935.4171;;;;
2022/10/15 10:58:59;;;;;;;0.7;0.7;;;;;;;20.88;68.08691;935.3934;;;;
2022/10/15 11:01:32;;;;;;;1.5;0.9;;;;;;;21.05;68.32422;935.3878;;;;
2022/10/15 11:04:05;;;;;;;1.2;1;;;;;;;20.94;66.89063;935.4222;;;;
2022/10/15 11:06:31;;;;;;;0.9;0.9;;;;;;;21.5;66.34375;935.3312;;;;
2022/10/15 11:08:57;;;;;;;1;0.9;;;;;;;22.68;62.12988;935.258;;;;
2022/10/15 11:11:30;;;;;;;1.1;0.8;;;;;;;23.45;59.5332;935.2484;;;;
2022/10/15 11:26:14;;;;;;;0.5;0.5;;;;;;;26.51;49.31055;935.0544;;;;
2022/10/15 11:28:45;;;;;;;1;0.9;;;;;;;26.63;50.3418;934.9872;;;;
2022/10/15 11:31:12;;;;;;;0.7;0.6;;;;;;;28.24;44.44922;935.0275;;;;
2022/10/15 11:33:37;;;;;;;0.5;0.5;;;;;;;28.28;45.27344;935.0499;;;;
2022/10/15 11:36:07;;;;;;;0.5;0.4;;;;;;;27.72;43.22266;935.0201;;;;
2022/10/15 11:38:33;;;;;;;0.3;0.2;;;;;;;28.66;42.65918;935.0864;;;;
2022/10/15 11:41:02;;;;;;;1.5;0.5;;;;;;;28.22;42.11816;935.0279;;;;
2022/10/15 11:43:27;;;;;;;1.1;0.6;;;;;;;28.58;43.68652;935.0516;;;;
2022/10/15 11:52:03;;;;;;;0.5;0.3;;;;;;;30.44;38.25391;935.0168;;;;
2022/10/15 11:54:28;;;;;;;0.8;0.4;;;;;;;29.15;39.9541;935.0126;;;;
2022/10/15 11:56:53;;;;;;;0.9;0.4;;;;;;;27.46;44.14746;934.9378;;;;
2022/10/15 11:59:18;;;;;;;0.3;0.3;;;;;;;26.27;45.29688;934.9123;;;;
2022/10/15 12:02:15;;;;;;;0.4;0.4;;;;;;;25.66;46.94824;934.8431;;;;
2022/10/15 12:04:40;;;;;;;0.3;0.3;;;;;;;24.69;50.43164;934.8663;;;;
2022/10/15 12:07:05;;;;;;;0.5;0.2;;;;;;;24.88;51.01953;934.8939;;;;
2022/10/15 12:09:31;;;;;;;0.2;0.2;;;;;;;24.88;50.74805;934.8492;;;;
2022/10/15 12:11:57;;;;;;;0.4;0.4;;;;;;;24.35;51.19336;934.7883;;;;
2022/10/15 12:14:25;;;;;;;1.5;0.4;;;;;;;24.04;51.71094;934.7523;;;;
2022/10/15 12:16:51;;;;;;;0.3;0.3;;;;;;;23.69;53.2832;934.7236;;;;
2022/10/15 12:21:50;;;;;;;0.3;0.3;;;;;;;23.47;55.71484;934.7118;;;;
2022/10/15 12:24:19;;;;;;;0.5;0.5;;;;;;;23.37;55.97266;934.7327;;;;
2022/10/15 12:32:31;;;;;;;0.3;0.3;;;;;;;22.41;58.61914;934.7907;;;;
2022/10/15 12:34:59;;;;;;;0.3;0.3;;;;;;;22.26;60.81738;934.8219;;;;
2022/10/15 12:37:25;;;;;;;0.4;0.4;;;;;;;22.02;63.03418;934.8664;;;;
2022/10/15 12:39:49;;;;;;;0.4;0.4;;;;;;;21.86;62.46094;934.9069;;;;
2022/10/15 12:42:18;;;;;;;0.5;0.4;;;;;;;21.4;63.98926;934.8644;;;;
2022/10/15 12:44:43;;;;;;;0.5;0.5;;;;;;;21.45;62.40332;934.9026;;;;
2022/10/15 12:49:52;;;;;;;0.5;0.5;;;;;;;21.27;63.87598;934.9747;;;;
2022/10/15 12:52:51;;;;;;;0.4;0.4;;;;;;;21.25;65.74512;934.9868;;;;
2022/10/15 12:55:40;;;;;;;0.5;0.4;;;;;;;21.19;65.2334;934.978;;;;
2022/10/15 12:58:09;;;;;;;0.5;0.5;;;;;;;20.72;66.00488;934.9877;;;;
2022/10/15 13:00:34;;;;;;;0.5;0.5;;;;;;;20.89;65.94922;934.9416;;;;
2022/10/15 13:03:03;;;;;;;0.7;0.7;;;;;;;20.94;67.21875;934.9051;;;;
2022/10/15 13:05:26;;;;;;;1.6;0.5;;;;;;;20.87;68.33105;935.0151;;;;
2022/10/15 13:07:52;;;;;;;1.7;0.6;;;;;;;20.88;65.87793;934.9961;;;;
2022/10/15 13:10:21;;;;;;;1;0.6;;;;;;;20.78;66.73926;935.0494;;;;
2022/10/15 13:12:45;;;;;;;1.7;1.1;;;;;;;20.77;69.7998;935.0435;;;;
2022/10/15 13:15:10;;;;;;;2.7;1.3;;;;;;;20.85;71.21484;935.0101;;;;
2022/10/15 13:17:42;;;;;;;1.1;0.6;;;;;;;20.89;71.15039;934.9214;;;;
2022/10/15 13:20:12;;;;;;;2;1.1;;;;;;;20.98;71.7627;935.0072;;;;
2022/10/15 13:22:39;;;;;;;1.6;0.7;;;;;;;21.1;69.36035;935.0008;;;;
2022/10/15 13:25:12;;;;;;;0.8;0.5;;;;;;;21.24;65.67383;935.0195;;;;
2022/10/15 13:27:38;;;;;;;0.6;0.6;;;;;;;21.25;65.79395;935.0425;;;;
2022/10/15 13:30:11;;;;;;;0.9;0.5;;;;;;;21.16;65.80078;935.0666;;;;
2022/10/15 13:32:35;;;;;;;0.6;0.6;;;;;;;21.18;65.85156;935.0447;;;;
2022/10/15 13:35:04;;;;;;;1.7;0.5;;;;;;;21.26;65.80566;935.0172;;;;
2022/10/15 13:37:30;;;;;;;0.4;0.4;;;;;;;21.3;65.81055;935.0142;;;;
2022/10/15 13:39:55;;;;;;;0.9;0.7;;;;;;;21.34;64.29492;934.9991;;;;
2022/10/15 13:42:26;;;;;;;0.4;0.4;;;;;;;21.35;65.26758;935.0115;;;;
2022/10/15 13:44:54;;;;;;;0.7;0.7;;;;;;;21.1;65.68848;935.0725;;;;
2022/10/15 13:47:21;;;;;;;1.6;0.5;;;;;;;21.02;66.92773;935.0664;;;;
2022/10/15 13:49:46;;;;;;;0.6;0.6;;;;;;;21.01;66.39746;935.075;;;;
2022/10/15 13:52:12;;;;;;;0.7;0.6;;;;;;;20.75;65.99805;935.0733;;;;
2022/10/15 13:54:37;;;;;;;0.6;0.4;;;;;;;20.62;67.15918;935.0993;;;;
2022/10/15 13:57:02;;;;;;;2;0.5;;;;;;;20.68;67.26172;935.0069;;;;
2022/10/15 13:59:28;;;;;;;1.1;0.6;;;;;;;20.59;68.58008;935.0613;;;;
2022/10/15 14:01:53;;;;;;;0.4;0.4;;;;;;;20.55;66.99609;935.0336;;;;
2022/10/15 14:04:18;;;;;;;0.6;0.6;;;;;;;20.46;67.06543;935.0811;;;;
2022/10/15 14:06:43;;;;;;;0.6;0.5;;;;;;;20.56;68.50586;935.0316;;;;
2022/10/15 14:09:08;;;;;;;0.7;0.5;;;;;;;20.5;68.01563;935.0209;;;;
2022/10/15 14:11:33;;;;;;;0.5;0.5;;;;;;;20.39;68.67773;935.045;;;;
2022/10/15 14:14:03;;;;;;;0.4;0.4;;;;;;;20.4;68.67773;935.0383;;;;
2022/10/15 14:16:31;;;;;;;0.5;0.5;;;;;;;20.34;67.66504;935.0483;;;;
2022/10/15 14:18:56;;;;;;;0.4;0.4;;;;;;;20.32;67.31055;935.0652;;;;
2022/10/15 14:21:21;;;;;;;1.5;0.5;;;;;;;20.37;69.33887;935.0919;;;;
2022/10/15 14:23:49;;;;;;;0.4;0.4;;;;;;;20.39;66.88965;935.118;;;;
2022/10/15 14:26:15;;;;;;;0.4;0.4;;;;;;;20.3;65.61621;935.1345;;;;
2022/10/15 14:28:41;;;;;;;1;0.5;;;;;;;20.26;68.25977;935.1021;;;;
2022/10/15 14:31:06;;;;;;;0.6;0.5;;;;;;;20.19;67.52539;935.1621;;;;
2022/10/15 14:33:31;;;;;;;0.7;0.4;;;;;;;20.15;68.10156;935.1223;;;;
2022/10/15 14:36:00;;;;;;;0.7;0.5;;;;;;;20.11;66.79004;935.1074;;;;
2022/10/15 14:38:25;;;;;;;0.8;0.6;;;;;;;20.05;69.09082;935.1408;;;;
2022/10/15 14:40:52;;;;;;;2.3;0.5;;;;;;;20.04;69.27637;935.1191;;;;
2022/10/15 14:43:18;;;;;;;0.8;0.6;;;;;;;20.12;69.34766;935.1465;;;;
2022/10/15 14:45:43;;;;;;;0.5;0.5;;;;;;;20.24;70.8252;935.1227;;;;
2022/10/15 14:48:08;;;;;;;2.2;0.6;;;;;;;20.37;71.84961;935.1411;;;;
2022/10/15 14:50:33;;;;;;;1.6;0.9;;;;;;;20.37;74.36035;935.1339;;;;
2022/10/15 14:52:59;;;;;;;1.3;0.8;;;;;;;20.45;72.61035;935.1577;;;;
2022/10/15 14:55:25;;;;;;;1.1;0.7;;;;;;;20.42;74.46094;935.1658;;;;
2022/10/15 14:57:50;;;;;;;1.3;0.7;;;;;;;20.59;73.7793;935.1085;;;;
2022/10/15 15:00:16;;;;;;;4.7;2.9;;;;;;;21.17;71.94336;935.0865;;;;
2022/10/15 15:02:41;;;;;;;1.9;1.3;;;;;;;21.15;72.41992;935.0759;;;;
2022/10/15 15:05:14;;;;;;;0.9;0.8;;;;;;;20.92;72.96777;935.1809;;;;
2022/10/15 15:07:43;;;;;;;1.4;0.9;;;;;;;20.84;73.55273;935.178;;;;
2022/10/15 15:10:14;;;;;;;2;0.7;;;;;;;20.71;73.00391;935.1547;;;;
2022/10/15 15:12:39;;;;;;;2.8;0.8;;;;;;;20.61;71.16504;935.1158;;;;
2022/10/15 15:15:05;;;;;;;1.9;1.3;;;;;;;20.64;72.24609;935.1255;;;;
2022/10/15 15:17:33;;;;;;;3.3;2;;;;;;;20.83;71.86621;935.1639;;;;
2022/10/15 15:19:58;;;;;;;2.4;1.5;;;;;;;21.15;71.31055;935.1114;;;;
2022/10/15 15:22:25;;;;;;;3.2;1.8;;;;;;;22.48;67.46484;935.0637;;;;
2022/10/15 15:24:50;;;;;;;7.7;4.3;;;;;;;23.09;64.59668;935.0421;;;;
2022/10/15 15:27:20;;;;;;;7.1;4.9;;;;;;;22.68;65.53418;935.0469;;;;
2022/10/15 15:29:45;;;;;;;4.7;3.8;;;;;;;22.14;68.56152;935.0756;;;;
2022/10/15 15:32:11;;;;;;;2.3;1.7;;;;;;;21.58;71.0625;935.0834;;;;
2022/10/15 15:34:36;;;;;;;1.8;1.3;;;;;;;21.07;73.38965;935.1152;;;;
2022/10/15 15:37:01;;;;;;;2.5;1;;;;;;;20.82;74.08594;935.1154;;;;
2022/10/15 15:39:30;;;;;;;2.6;0.8;;;;;;;20.57;75.42285;935.1462;;;;
2022/10/15 15:41:55;;;;;;;3;1;;;;;;;20.35;76.42383;935.1102;;;;
2022/10/15 15:44:21;;;;;;;1.1;0.9;;;;;;;20.16;76.87012;935.176;;;;
2022/10/15 15:46:49;;;;;;;1.1;0.9;;;;;;;20.07;77.23926;935.1975;;;;
2022/10/15 15:49:11;;;;;;;1.7;0.9;;;;;;;19.98;77.17676;935.1807;;;;
2022/10/15 15:51:36;;;;;;;3;1;;;;;;;19.89;77.23145;935.2715;;;;